Time;durP1;ratioP1;P1;durP2;ratioP2;P2;SDS_P1;SDS_P2;PMS_P1;PMS_P2;Temp;Humidity;BMP_temperature;BMP_pressure;BME280_temperature;BME280_humidity;BME280_pressure;Samples;Min_cycle;Max_cycle;Signal;HPM_P1;HPM_P2
2022/04/08 00:00:22;;;;;;;9.87;8.97;;;6.50;99.90;;;;;;5052964;28;20179;-68
2022/04/08 00:02:50;;;;;;;9.80;8.10;;;6.50;99.90;;;;;;5035086;28;20292;-66
2022/04/08 00:05:15;;;;;;;9.63;8.83;;;6.50;99.90;;;;;;5032632;28;20195;-66
2022/04/08 00:07:42;;;;;;;10.00;8.53;;;6.60;99.90;;;;;;5054088;28;20214;-66
2022/04/08 00:10:08;;;;;;;9.90;9.40;;;6.70;99.90;;;;;;5059810;28;20205;-66
2022/04/08 00:12:34;;;;;;;12.07;11.23;;;6.70;99.90;;;;;;5045470;28;20172;-66
2022/04/08 00:14:59;;;;;;;9.10;8.30;;;6.60;99.90;;;;;;5045927;28;20758;-66
2022/04/08 00:17:25;;;;;;;7.97;7.57;;;6.50;99.90;;;;;;5059233;28;20250;-67
2022/04/08 00:19:51;;;;;;;8.33;7.83;;;6.50;99.90;;;;;;5052579;28;20179;-67
2022/04/08 00:22:21;;;;;;;10.40;8.73;;;6.40;99.90;;;;;;5037980;28;20180;-67
2022/04/08 00:24:47;;;;;;;8.30;7.90;;;6.40;99.90;;;;;;5039485;28;20628;-67
2022/04/08 00:27:13;;;;;;;7.80;7.40;;;6.40;99.90;;;;;;5050908;28;20214;-66
2022/04/08 00:29:38;;;;;;;7.77;7.37;;;6.40;99.90;;;;;;5050463;28;20203;-67
2022/04/08 00:32:04;;;;;;;7.47;7.07;;;6.40;99.90;;;;;;5052395;28;20167;-66
2022/04/08 00:34:30;;;;;;;8.57;7.93;;;6.40;99.90;;;;;;5049391;28;20174;-67
2022/04/08 00:36:55;;;;;;;8.70;8.30;;;6.40;99.90;;;;;;5032004;28;20199;-66
2022/04/08 00:39:22;;;;;;;8.00;7.50;;;6.40;99.90;;;;;;5032238;28;20183;-67
2022/04/08 00:41:48;;;;;;;7.23;6.77;;;6.40;99.90;;;;;;5032663;28;20564;-67
2022/04/08 00:44:14;;;;;;;7.43;7.03;;;6.40;99.90;;;;;;5032137;28;20179;-67
2022/04/08 00:46:39;;;;;;;7.63;7.20;;;6.40;99.90;;;;;;5050158;28;20285;-66
2022/04/08 00:49:06;;;;;;;7.67;7.17;;;6.40;99.90;;;;;;5051675;28;20197;-66
2022/04/08 00:51:34;;;;;;;9.53;8.57;;;6.30;99.90;;;;;;5034366;28;20214;-66
2022/04/08 00:54:01;;;;;;;7.47;6.97;;;6.30;99.90;;;;;;5036171;28;20175;-65
2022/04/08 00:56:31;;;;;;;8.30;7.73;;;6.20;99.90;;;;;;5051576;28;20163;-66
2022/04/08 00:58:57;;;;;;;7.73;7.23;;;6.20;99.90;;;;;;5046629;28;20163;-66
2022/04/08 01:01:24;;;;;;;7.80;7.40;;;6.10;99.90;;;;;;5031831;28;20603;-66
2022/04/08 01:03:53;;;;;;;8.73;8.07;;;6.10;99.90;;;;;;5034690;28;20268;-67
2022/04/08 01:06:22;;;;;;;10.67;9.43;;;6.10;99.90;;;;;;5051410;28;20163;-66
2022/04/08 01:08:51;;;;;;;8.83;7.97;;;6.10;99.90;;;;;;5038504;28;20258;-66
2022/04/08 01:11:17;;;;;;;9.07;8.37;;;6.20;99.90;;;;;;5031675;28;20177;-66
2022/04/08 01:13:43;;;;;;;10.03;9.00;;;6.20;99.90;;;;;;5043098;28;20648;-65
2022/04/08 01:16:09;;;;;;;9.33;8.47;;;6.30;99.90;;;;;;5051254;28;20170;-65
2022/04/08 01:18:35;;;;;;;8.27;7.50;;;6.20;99.90;;;;;;5041310;28;20282;-66
2022/04/08 01:21:07;;;;;;;8.03;7.27;;;6.20;99.90;;;;;;5031719;28;20210;-65
2022/04/08 01:23:34;;;;;;;8.23;7.57;;;6.20;99.90;;;;;;5040770;28;20683;-65
2022/04/08 01:26:05;;;;;;;9.63;7.73;;;6.20;99.90;;;;;;5048312;28;20183;-67
2022/04/08 01:28:30;;;;;;;7.90;7.40;;;6.20;99.90;;;;;;5051647;28;20194;-66
2022/04/08 01:30:56;;;;;;;8.23;7.73;;;6.20;99.90;;;;;;5044313;28;20676;-66
2022/04/08 01:33:22;;;;;;;8.70;7.93;;;6.10;99.90;;;;;;5031763;28;20172;-66
2022/04/08 01:35:47;;;;;;;9.20;8.37;;;6.20;99.90;;;;;;5037288;28;20170;-66
2022/04/08 01:38:13;;;;;;;8.30;7.70;;;6.10;99.90;;;;;;5051379;28;20202;-66
2022/04/08 01:40:38;;;;;;;8.37;7.77;;;6.20;99.90;;;;;;5049658;28;20171;-66
2022/04/08 01:43:04;;;;;;;8.50;7.80;;;6.20;99.90;;;;;;5050004;28;20171;-66
2022/04/08 01:45:30;;;;;;;8.43;7.73;;;6.10;99.90;;;;;;5047430;28;20188;-65
2022/04/08 01:47:55;;;;;;;8.73;8.00;;;6.10;99.90;;;;;;5029715;28;20274;-66
2022/04/08 01:50:22;;;;;;;8.70;8.13;;;6.10;99.90;;;;;;5032192;28;20739;-66
2022/04/08 01:52:48;;;;;;;8.97;8.20;;;6.00;99.90;;;;;;5047315;28;20162;-67
2022/04/08 01:55:14;;;;;;;8.43;7.73;;;6.00;99.90;;;;;;5054707;28;20175;-66
2022/04/08 01:57:43;;;;;;;8.30;7.70;;;5.90;99.90;;;;;;5054787;28;20191;-65
2022/04/08 02:00:09;;;;;;;8.67;8.07;;;5.90;99.90;;;;;;5054407;28;20188;-66
2022/04/08 02:02:35;;;;;;;8.23;7.73;;;5.80;99.90;;;;;;5055015;28;20547;-66
2022/04/08 02:05:02;;;;;;;8.70;7.97;;;5.80;99.90;;;;;;5035964;28;20666;-66
2022/04/08 02:07:28;;;;;;;8.57;8.07;;;5.90;99.90;;;;;;5034835;28;20195;-66
2022/04/08 02:09:54;;;;;;;8.63;8.13;;;6.00;99.90;;;;;;5051125;28;20615;-66
2022/04/08 02:12:20;;;;;;;9.40;8.53;;;6.00;99.90;;;;;;5054686;28;20163;-65
2022/04/08 02:14:46;;;;;;;9.43;8.43;;;6.10;99.90;;;;;;5039098;28;20692;-66
2022/04/08 02:17:11;;;;;;;9.27;8.53;;;6.10;99.90;;;;;;5034412;28;20264;-66
2022/04/08 02:19:37;;;;;;;9.27;8.43;;;6.20;99.90;;;;;;5047833;28;20190;-66
2022/04/08 02:22:03;;;;;;;10.07;8.90;;;6.20;99.90;;;;;;5054622;28;20534;-65
2022/04/08 02:24:29;;;;;;;9.00;8.43;;;6.20;99.90;;;;;;5042449;28;20380;-63
2022/04/08 02:26:55;;;;;;;10.83;9.73;;;6.20;99.90;;;;;;5034270;28;20195;-66
2022/04/08 02:29:21;;;;;;;11.50;9.70;;;6.20;99.90;;;;;;5035422;28;20191;-67
2022/04/08 02:31:47;;;;;;;11.37;10.27;;;6.20;99.90;;;;;;5034368;28;20175;-67
2022/04/08 02:34:13;;;;;;;10.97;10.13;;;6.30;99.90;;;;;;5042509;28;20262;-66
2022/04/08 02:36:38;;;;;;;11.20;10.40;;;6.30;99.90;;;;;;5053549;28;20281;-68
2022/04/08 02:39:04;;;;;;;11.70;10.70;;;6.30;99.90;;;;;;5047307;28;20572;-65
2022/04/08 02:41:30;;;;;;;11.87;9.43;;;6.30;99.90;;;;;;5034031;28;20329;-67
2022/04/08 02:43:56;;;;;;;10.27;9.63;;;6.20;99.90;;;;;;5038570;28;20198;-67
2022/04/08 02:46:21;;;;;;;11.67;9.67;;;6.10;99.90;;;;;;5053564;28;20701;-67
2022/04/08 02:48:47;;;;;;;9.50;8.60;;;6.00;99.90;;;;;;5050274;28;20203;-67
2022/04/08 02:51:12;;;;;;;9.30;8.60;;;6.00;99.90;;;;;;5033716;28;20668;-68
2022/04/08 02:53:38;;;;;;;8.63;8.03;;;6.00;99.90;;;;;;5034919;28;20171;-69
2022/04/08 02:56:04;;;;;;;9.70;8.80;;;5.90;99.90;;;;;;5033788;28;20175;-68
2022/04/08 02:58:29;;;;;;;9.60;8.80;;;5.80;99.90;;;;;;5053407;28;20213;-66
2022/04/08 03:00:59;;;;;;;8.67;8.07;;;5.80;99.90;;;;;;5035048;28;20683;-68
2022/04/08 03:03:26;;;;;;;9.23;8.63;;;5.80;99.90;;;;;;5033562;28;20168;-66
2022/04/08 03:05:52;;;;;;;11.20;8.83;;;5.70;99.90;;;;;;5050470;28;20175;-68
2022/04/08 03:08:17;;;;;;;9.77;8.53;;;5.70;99.90;;;;;;5053541;28;20195;-67
2022/04/08 03:10:43;;;;;;;9.47;8.80;;;5.70;99.90;;;;;;5037465;28;20207;-67
2022/04/08 03:13:09;;;;;;;9.07;8.33;;;5.60;99.90;;;;;;5033760;28;20171;-67
2022/04/08 03:15:34;;;;;;;12.53;8.37;;;5.60;99.90;;;;;;5047328;28;20174;-67
2022/04/08 03:18:00;;;;;;;9.30;8.70;;;5.60;99.90;;;;;;5053395;28;20191;-67
2022/04/08 03:20:26;;;;;;;11.53;9.40;;;5.60;99.90;;;;;;5040868;28;20186;-67
2022/04/08 03:22:51;;;;;;;10.30;8.97;;;5.70;99.90;;;;;;5033796;28;20175;-68
2022/04/08 03:25:19;;;;;;;9.13;8.17;;;5.60;99.90;;;;;;5043218;28;20193;-68
2022/04/08 03:27:44;;;;;;;10.97;8.53;;;5.60;99.90;;;;;;5053143;28;20195;-66
2022/04/08 03:30:10;;;;;;;8.90;8.30;;;5.60;99.90;;;;;;5044182;28;20257;-66
2022/04/08 03:32:36;;;;;;;9.60;8.90;;;5.60;99.90;;;;;;5033078;28;20186;-66
2022/04/08 03:35:02;;;;;;;10.97;9.30;;;5.60;99.90;;;;;;5040037;28;20259;-67
2022/04/08 03:37:29;;;;;;;9.97;9.10;;;5.60;99.90;;;;;;5073083;23;20246;-71
2022/04/08 03:39:55;;;;;;;10.47;9.67;;;5.60;99.90;;;;;;5053139;28;20175;-71
2022/04/08 03:42:21;;;;;;;10.33;9.53;;;5.50;99.90;;;;;;5054448;28;20232;-69
2022/04/08 03:44:49;;;;;;;9.87;9.17;;;5.50;99.90;;;;;;5052462;28;20196;-71
2022/04/08 03:47:14;;;;;;;9.90;9.00;;;5.50;99.90;;;;;;5054361;28;20187;-68
2022/04/08 03:49:40;;;;;;;10.23;9.23;;;5.50;99.90;;;;;;5042990;28;20734;-72
2022/04/08 03:52:08;;;;;;;10.73;10.00;;;5.50;99.90;;;;;;5034454;28;20195;-69
2022/04/08 03:54:35;;;;;;;10.23;9.07;;;5.60;99.90;;;;;;5041691;28;20694;-70
2022/04/08 03:57:01;;;;;;;12.37;9.87;;;5.60;99.90;;;;;;5052953;28;20559;-72
2022/04/08 03:59:26;;;;;;;9.80;9.13;;;5.60;99.90;;;;;;5045131;28;20186;-70
2022/04/08 04:01:52;;;;;;;11.37;10.33;;;5.70;99.90;;;;;;5032776;28;20184;-71
2022/04/08 04:04:17;;;;;;;10.83;9.93;;;5.70;99.90;;;;;;5052515;28;20183;-69
2022/04/08 04:06:43;;;;;;;11.10;10.20;;;5.70;99.90;;;;;;5052303;28;20224;-68
2022/04/08 04:09:09;;;;;;;10.97;9.87;;;5.80;99.90;;;;;;5035465;28;20241;-66
2022/04/08 04:11:35;;;;;;;10.67;9.83;;;5.80;99.90;;;;;;5032758;28;20737;-66
2022/04/08 04:14:02;;;;;;;11.93;11.03;;;5.90;99.90;;;;;;5047349;28;20170;-66
2022/04/08 04:16:27;;;;;;;11.27;10.13;;;5.90;99.90;;;;;;5051789;28;20167;-66
2022/04/08 04:18:53;;;;;;;11.43;10.50;;;6.00;99.90;;;;;;5037583;28;20249;-66
2022/04/08 04:21:19;;;;;;;15.60;11.77;;;6.00;99.90;;;;;;5032766;28;20254;-66
2022/04/08 04:23:44;;;;;;;12.27;11.17;;;6.00;99.90;;;;;;5033928;28;20175;-66
2022/04/08 04:26:10;;;;;;;11.80;10.67;;;6.10;99.90;;;;;;5031299;28;20183;-66
2022/04/08 04:28:36;;;;;;;12.17;11.23;;;6.20;99.90;;;;;;5032738;28;20581;-66
2022/04/08 04:31:04;;;;;;;13.93;12.47;;;6.20;99.90;;;;;;5031356;28;20203;-66
2022/04/08 04:33:30;;;;;;;12.13;11.23;;;6.20;99.90;;;;;;5041631;28;20190;-66
2022/04/08 04:35:56;;;;;;;17.93;12.03;;;6.10;99.90;;;;;;5050347;28;20175;-66
2022/04/08 04:38:23;;;;;;;12.30;11.30;;;6.10;99.90;;;;;;5051608;28;20229;-66
2022/04/08 04:40:49;;;;;;;13.07;11.67;;;6.10;99.90;;;;;;5051918;28;20170;-66
2022/04/08 04:43:14;;;;;;;13.93;12.50;;;6.00;99.90;;;;;;5043670;28;20175;-66
2022/04/08 04:45:40;;;;;;;14.27;12.97;;;6.00;99.90;;;;;;5030160;28;20215;-66
2022/04/08 04:48:06;;;;;;;12.60;11.40;;;6.00;99.90;;;;;;5035054;28;20293;-66
2022/04/08 04:50:32;;;;;;;13.90;12.60;;;6.00;99.90;;;;;;5050039;28;20202;-66
2022/04/08 04:52:57;;;;;;;13.23;11.93;;;5.80;99.90;;;;;;5048670;28;20186;-66
2022/04/08 04:55:23;;;;;;;13.27;11.87;;;5.80;99.90;;;;;;5050011;28;20171;-65
2022/04/08 04:57:49;;;;;;;15.63;12.37;;;5.80;99.90;;;;;;5044923;28;20203;-66
2022/04/08 05:00:16;;;;;;;12.10;11.10;;;5.70;99.90;;;;;;5031695;28;20171;-65
2022/04/08 05:02:43;;;;;;;12.70;11.43;;;5.70;99.90;;;;;;5035155;28;20189;-66
2022/04/08 05:05:09;;;;;;;13.10;11.80;;;5.70;99.90;;;;;;5051276;28;20179;-67
2022/04/08 05:07:34;;;;;;;14.10;12.77;;;5.70;99.90;;;;;;5046600;28;20198;-67
2022/04/08 05:10:01;;;;;;;16.67;12.33;;;5.70;99.90;;;;;;5031486;28;20206;-67
2022/04/08 05:12:27;;;;;;;14.17;12.13;;;5.60;99.90;;;;;;5033319;28;20262;-66
2022/04/08 05:14:53;;;;;;;13.00;11.90;;;5.60;99.90;;;;;;5051006;28;20253;-66
2022/04/08 05:17:18;;;;;;;12.77;11.57;;;5.60;99.90;;;;;;5051005;28;20183;-67
2022/04/08 05:19:44;;;;;;;14.23;12.63;;;5.60;99.90;;;;;;5031598;28;20180;-66
2022/04/08 05:22:09;;;;;;;13.70;12.00;;;5.60;99.90;;;;;;5043269;28;20183;-66
2022/04/08 05:24:35;;;;;;;13.33;11.93;;;5.70;99.90;;;;;;5051004;28;20167;-66
2022/04/08 05:27:01;;;;;;;12.40;10.97;;;5.70;99.90;;;;;;5041052;28;20269;-66
2022/04/08 05:29:27;;;;;;;13.00;11.90;;;5.60;99.90;;;;;;5035340;28;20685;-66
2022/04/08 05:31:53;;;;;;;13.57;11.37;;;5.70;99.90;;;;;;5043701;28;20674;-67
2022/04/08 05:34:18;;;;;;;12.43;11.10;;;5.70;99.90;;;;;;5055433;28;20183;-66
2022/04/08 05:36:44;;;;;;;11.93;10.90;;;5.70;99.90;;;;;;5045463;28;20198;-67
2022/04/08 05:39:10;;;;;;;11.20;10.20;;;5.80;99.90;;;;;;5054059;28;20178;-66
2022/04/08 05:41:35;;;;;;;11.60;10.67;;;5.80;99.90;;;;;;5041381;28;20183;-66
2022/04/08 05:44:01;;;;;;;12.93;11.70;;;5.90;99.90;;;;;;5035347;28;20258;-66
2022/04/08 05:46:26;;;;;;;11.83;10.80;;;6.00;99.90;;;;;;5046498;28;20179;-66
2022/04/08 05:48:52;;;;;;;11.67;10.57;;;6.00;99.90;;;;;;5054879;28;20205;-66
2022/04/08 05:51:18;;;;;;;11.73;10.47;;;6.10;99.90;;;;;;5044713;28;20211;-67
2022/04/08 05:53:43;;;;;;;13.00;11.93;;;6.20;99.90;;;;;;5034928;28;20176;-67
2022/04/08 05:56:09;;;;;;;11.67;10.67;;;6.20;99.90;;;;;;5038968;28;20179;-66
2022/04/08 05:58:35;;;;;;;11.70;10.50;;;6.30;99.90;;;;;;5042726;28;20195;-66
2022/04/08 06:01:00;;;;;;;12.13;10.97;;;6.30;99.90;;;;;;5038079;28;20659;-67
2022/04/08 06:03:26;;;;;;;11.40;10.23;;;6.40;99.90;;;;;;5054945;28;20179;-67
2022/04/08 06:05:53;;;;;;;13.10;12.10;;;6.50;99.90;;;;;;5050355;28;20240;-66
2022/04/08 06:08:18;;;;;;;12.43;11.23;;;6.60;99.90;;;;;;5034682;28;20203;-66
2022/04/08 06:10:44;;;;;;;11.80;10.80;;;6.60;99.90;;;;;;5035823;28;20301;-66
2022/04/08 06:13:10;;;;;;;11.60;10.40;;;6.70;99.90;;;;;;5034461;28;20254;-67
2022/04/08 06:15:35;;;;;;;10.40;9.50;;;6.80;99.90;;;;;;5033887;28;20544;-66
2022/04/08 06:18:01;;;;;;;10.03;9.17;;;7.00;99.90;;;;;;5053490;28;20186;-67
2022/04/08 06:20:26;;;;;;;11.30;10.00;;;7.30;99.90;;;;;;5054265;28;20174;-67
2022/04/08 06:22:53;;;;;;;15.97;9.67;;;7.60;99.90;;;;;;5036509;28;20190;-66
2022/04/08 06:25:21;;;;;;;11.57;8.77;;;8.00;99.90;;;;;;5033965;28;20167;-67
2022/04/08 06:28:03;;;;;;;8.83;8.10;;;8.30;99.90;;;;;;5035140;28;20289;-66
2022/04/08 06:30:30;;;;;;;8.77;7.93;;;8.60;99.90;;;;;;5034138;28;20675;-66
2022/04/08 06:32:55;;;;;;;9.03;8.33;;;8.70;99.90;;;;;;5050823;28;20182;-66
2022/04/08 06:35:21;;;;;;;9.17;8.20;;;9.00;99.90;;;;;;5052394;28;20171;-67
2022/04/08 06:37:48;;;;;;;8.20;7.50;;;9.20;99.90;;;;;;5037812;28;20215;-66
2022/04/08 06:40:13;;;;;;;7.93;7.17;;;9.30;99.90;;;;;;5034074;28;20656;-66
2022/04/08 06:42:39;;;;;;;8.70;7.90;;;9.00;99.90;;;;;;5047198;28;20183;-66
2022/04/08 06:45:06;;;;;;;8.47;7.73;;;9.10;99.90;;;;;;5052885;28;20421;-65
2022/04/08 06:47:32;;;;;;;9.53;8.40;;;9.10;99.90;;;;;;5041215;28;20204;-66
2022/04/08 06:49:58;;;;;;;8.03;7.43;;;9.10;99.90;;;;;;5033109;28;20206;-66
2022/04/08 06:52:23;;;;;;;8.17;7.57;;;9.20;99.90;;;;;;5035125;28;20263;-66
2022/04/08 06:54:49;;;;;;;11.20;7.43;;;9.20;99.90;;;;;;5033443;28;20172;-66
2022/04/08 06:57:15;;;;;;;8.20;7.57;;;9.30;99.90;;;;;;5047453;28;20194;-67
2022/04/08 06:59:41;;;;;;;8.47;7.67;;;9.40;99.90;;;;;;5053645;28;20201;-66
2022/04/08 07:02:07;;;;;;;7.43;6.70;;;9.50;99.90;;;;;;5052224;28;20190;-66
2022/04/08 07:04:33;;;;;;;8.50;7.53;;;9.70;99.90;;;;;;5053276;28;20249;-66
2022/04/08 07:06:58;;;;;;;7.40;6.90;;;9.80;99.90;;;;;;5042687;28;20977;-66
2022/04/08 07:09:24;;;;;;;9.43;7.80;;;9.80;99.90;;;;;;5033230;28;20655;-65
2022/04/08 07:11:50;;;;;;;7.60;7.10;;;10.00;99.90;;;;;;5041985;28;20186;-66
2022/04/08 07:14:15;;;;;;;8.37;7.77;;;10.10;99.90;;;;;;5052965;28;20653;-66
2022/04/08 07:16:43;;;;;;;8.70;7.90;;;10.20;99.90;;;;;;5052065;28;20554;-66
2022/04/08 07:19:10;;;;;;;10.23;7.77;;;10.00;99.90;;;;;;5053160;28;20179;-65
2022/04/08 07:21:36;;;;;;;9.83;9.13;;;9.90;99.90;;;;;;5052496;28;20285;-66
2022/04/08 07:24:02;;;;;;;11.30;8.73;;;9.70;99.90;;;;;;5053099;28;20175;-66
2022/04/08 07:26:28;;;;;;;11.03;9.90;;;9.40;99.90;;;;;;5038124;28;20808;-66
2022/04/08 07:28:55;;;;;;;12.30;10.43;;;9.30;99.90;;;;;;5052724;28;20266;-66
2022/04/08 07:31:21;;;;;;;10.40;8.83;;;9.10;99.90;;;;;;5053092;28;20198;-66
2022/04/08 07:33:46;;;;;;;9.00;8.30;;;8.80;99.90;;;;;;5052830;28;20463;-66
2022/04/08 07:36:12;;;;;;;9.00;8.23;;;8.80;99.90;;;;;;5041233;28;20175;-66
2022/04/08 07:38:37;;;;;;;9.10;7.83;;;8.90;99.90;;;;;;5033884;28;20224;-65
2022/04/08 07:41:03;;;;;;;8.53;7.93;;;8.80;99.90;;;;;;5052888;28;20628;-66
2022/04/08 07:43:29;;;;;;;9.03;8.23;;;8.70;99.90;;;;;;5052642;28;20181;-67
2022/04/08 07:45:54;;;;;;;8.23;7.63;;;8.60;99.90;;;;;;5050982;28;20270;-66
2022/04/08 07:48:20;;;;;;;9.00;8.10;;;8.50;99.90;;;;;;5052659;28;20199;-66
2022/04/08 07:50:46;;;;;;;10.27;9.37;;;8.60;99.90;;;;;;5051661;28;20237;-66
2022/04/08 07:53:11;;;;;;;9.70;8.90;;;8.50;99.90;;;;;;5052624;28;20178;-66
2022/04/08 07:55:37;;;;;;;9.17;8.47;;;8.60;99.90;;;;;;5051975;28;20167;-66
2022/04/08 07:58:04;;;;;;;9.43;8.53;;;8.70;99.90;;;;;;5052913;28;20665;-66
2022/04/08 08:00:31;;;;;;;9.90;9.07;;;8.70;99.90;;;;;;5052577;28;20173;-65
2022/04/08 08:02:58;;;;;;;9.07;8.13;;;8.70;99.90;;;;;;5052303;28;20320;-66
2022/04/08 08:05:25;;;;;;;9.77;8.77;;;8.70;99.90;;;;;;5051981;28;20278;-65
2022/04/08 08:07:57;;;;;;;9.40;8.53;;;8.80;99.90;;;;;;5049776;28;20202;-66
2022/04/08 08:10:31;;;;;;;9.30;7.70;;;9.00;99.90;;;;;;5052273;28;20198;-65
2022/04/08 08:13:00;;;;;;;8.30;7.50;;;9.10;99.90;;;;;;5052133;28;20595;-66
2022/04/08 08:15:26;;;;;;;9.07;8.33;;;9.30;99.90;;;;;;5051870;28;20163;-66
2022/04/08 08:17:52;;;;;;;8.27;7.67;;;9.20;99.90;;;;;;5051969;28;20190;-67
2022/04/08 08:20:20;;;;;;;8.40;7.70;;;9.10;99.90;;;;;;5052182;28;20662;-67
2022/04/08 08:22:46;;;;;;;11.70;8.70;;;9.10;99.90;;;;;;5051831;28;20655;-66
2022/04/08 08:25:13;;;;;;;9.33;8.37;;;9.30;99.90;;;;;;5051768;28;20229;-66
2022/04/08 08:27:40;;;;;;;8.40;7.70;;;9.30;99.90;;;;;;5051523;28;20271;-67
2022/04/08 08:30:10;;;;;;;8.40;7.70;;;9.30;99.90;;;;;;5051947;28;20206;-66
2022/04/08 08:32:39;;;;;;;8.93;8.17;;;9.40;99.90;;;;;;5051961;28;20254;-66
2022/04/08 08:35:08;;;;;;;8.40;7.90;;;9.50;99.90;;;;;;5051735;28;20210;-67
2022/04/08 08:37:35;;;;;;;9.77;7.13;;;9.60;99.90;;;;;;5047921;28;20735;-67
2022/04/08 08:40:01;;;;;;;8.50;7.53;;;9.80;99.90;;;;;;5038085;28;20194;-66
2022/04/08 08:42:29;;;;;;;7.20;6.67;;;10.00;99.90;;;;;;5041720;28;20172;-67
2022/04/08 08:44:54;;;;;;;7.77;7.10;;;10.10;99.90;;;;;;5048605;28;20556;-67
2022/04/08 08:47:21;;;;;;;8.53;7.87;;;10.00;99.90;;;;;;5051593;28;20202;-67
2022/04/08 08:49:50;;;;;;;7.87;7.13;;;10.00;99.90;;;;;;5051245;28;20599;-67
2022/04/08 08:52:20;;;;;;;7.67;7.13;;;10.10;99.90;;;;;;5050543;28;20171;-67
2022/04/08 08:54:46;;;;;;;7.73;7.10;;;10.10;99.90;;;;;;5051177;28;20227;-66
2022/04/08 08:57:19;;;;;;;7.80;7.10;;;10.00;99.90;;;;;;5051074;28;20570;-66
2022/04/08 08:59:45;;;;;;;7.53;6.83;;;10.10;99.90;;;;;;5044306;28;20300;-66
2022/04/08 09:02:16;;;;;;;7.47;6.93;;;10.20;99.90;;;;;;5045761;28;20183;-67
2022/04/08 09:04:42;;;;;;;8.87;8.20;;;10.10;99.90;;;;;;5047040;28;20191;-67
2022/04/08 09:07:28;;;;;;;9.17;8.37;;;9.80;99.90;;;;;;5030701;28;20215;-66
2022/04/08 09:09:56;;;;;;;9.53;8.07;;;9.70;99.90;;;;;;5036198;28;20254;-67
2022/04/08 09:12:27;;;;;;;9.40;8.77;;;9.60;99.90;;;;;;5051305;28;20170;-67
2022/04/08 09:14:55;;;;;;;8.40;7.80;;;9.80;99.90;;;;;;5050829;28;20174;-67
2022/04/08 09:17:23;;;;;;;8.23;7.60;;;9.90;99.90;;;;;;5049934;28;20197;-67
2022/04/08 09:19:50;;;;;;;8.07;7.30;;;10.00;99.90;;;;;;5051044;28;20253;-66
2022/04/08 09:22:17;;;;;;;9.50;7.53;;;10.20;99.90;;;;;;5051161;28;20182;-67
2022/04/08 09:24:43;;;;;;;7.87;7.27;;;10.30;99.90;;;;;;5049854;28;20221;-67
2022/04/08 09:27:10;;;;;;;8.10;7.03;;;10.40;99.90;;;;;;5051248;28;20194;-67
2022/04/08 09:29:36;;;;;;;7.70;7.10;;;10.60;99.90;;;;;;5050858;28;20191;-66
2022/04/08 09:32:09;;;;;;;7.40;6.73;;;10.70;99.90;;;;;;5051165;28;20201;-67
2022/04/08 09:34:35;;;;;;;6.87;6.43;;;10.80;99.90;;;;;;5049458;28;20204;-67
2022/04/08 09:37:15;;;;;;;7.50;6.97;;;11.00;99.90;;;;;;5074182;23;20571;-67
2022/04/08 09:39:56;;;;;;;9.97;7.50;;;11.00;99.90;;;;;;5010223;28;20186;-67
2022/04/08 09:42:42;;;;;;;8.20;7.00;;;10.90;99.90;;;;;;5011586;28;20183;-66
2022/04/08 09:45:09;;;;;;;7.60;6.77;;;11.10;99.90;;;;;;5011350;28;20371;-67
2022/04/08 09:47:36;;;;;;;10.07;7.50;;;11.10;99.90;;;;;;5006129;28;20224;-66
2022/04/08 09:50:01;;;;;;;8.17;7.47;;;11.00;99.90;;;;;;4991674;28;20631;-67
2022/04/08 09:52:28;;;;;;;7.30;6.80;;;11.10;99.90;;;;;;4991854;28;20247;-67
2022/04/08 09:54:58;;;;;;;7.80;7.00;;;11.20;99.90;;;;;;4991211;28;20169;-66
2022/04/08 09:57:24;;;;;;;8.00;7.00;;;11.30;99.90;;;;;;4991880;28;20620;-67
2022/04/08 09:59:58;;;;;;;7.20;6.60;;;11.20;99.90;;;;;;4991041;28;20268;-67
2022/04/08 10:02:26;;;;;;;9.00;7.17;;;11.40;99.90;;;;;;4995910;28;20269;-67
2022/04/08 10:04:54;;;;;;;6.93;6.40;;;11.40;99.90;;;;;;4991273;28;20180;-66
2022/04/08 10:07:20;;;;;;;8.80;8.00;;;11.50;99.90;;;;;;4991243;28;20692;-67
2022/04/08 10:09:58;;;;;;;10.00;6.40;;;11.60;99.90;;;;;;4991263;28;20205;-65
2022/04/08 10:12:29;;;;;;;7.27;6.77;;;11.60;99.90;;;;;;4989669;28;20367;-65
2022/04/08 10:15:01;;;;;;;10.20;7.13;;;11.70;99.90;;;;;;4994165;28;20173;-65
2022/04/08 10:17:27;;;;;;;7.57;6.97;;;11.80;99.90;;;;;;4994907;28;21757;-65
2022/04/08 10:19:52;;;;;;;9.23;7.00;;;11.70;99.90;;;;;;4995098;28;20276;-65
2022/04/08 10:22:20;;;;;;;9.77;7.20;;;11.80;99.90;;;;;;4994748;28;20268;-65
2022/04/08 10:24:56;;;;;;;7.47;6.87;;;11.70;99.90;;;;;;4993482;28;20184;-65
2022/04/08 10:27:34;;;;;;;7.53;6.80;;;11.60;99.90;;;;;;4995181;28;20204;-66
2022/04/08 10:30:00;;;;;;;9.37;8.17;;;11.60;99.90;;;;;;4994991;28;20212;-66
2022/04/08 10:32:38;;;;;;;10.53;8.37;;;11.70;99.90;;;;;;4994853;28;20236;-65
2022/04/08 10:35:33;;;;;;;7.60;7.00;;;11.80;99.90;;;;;;4994580;28;20226;-66
2022/04/08 10:38:00;;;;;;;8.13;7.33;;;11.70;99.90;;;;;;4985617;28;20224;-66
2022/04/08 10:40:37;;;;;;;8.43;7.63;;;11.30;99.90;;;;;;4994927;28;20177;-66
2022/04/08 10:43:05;;;;;;;9.27;8.07;;;11.30;99.90;;;;;;4993747;28;20187;-66
2022/04/08 10:45:31;;;;;;;9.23;8.20;;;11.20;99.90;;;;;;4993105;28;20177;-66
2022/04/08 10:48:01;;;;;;;9.43;8.50;;;11.10;99.90;;;;;;4994198;28;20212;-68
2022/04/08 10:50:32;;;;;;;13.23;8.07;;;10.90;99.90;;;;;;4994510;28;20221;-66
2022/04/08 10:53:10;;;;;;;12.53;7.70;;;11.00;99.90;;;;;;4993857;28;20184;-64
2022/04/08 10:55:56;;;;;;;9.07;8.17;;;11.00;99.90;;;;;;4993599;28;20538;-69
2022/04/08 10:58:35;;;;;;;8.93;8.13;;;11.00;99.90;;;;;;4994511;28;20203;-66
2022/04/08 11:01:22;;;;;;;8.47;7.77;;;11.00;99.90;;;;;;4993855;28;20250;-66
2022/04/08 11:04:00;;;;;;;12.87;10.47;;;11.00;99.90;;;;;;4992957;28;20575;-66
2022/04/08 11:06:34;;;;;;;18.70;15.23;;;11.00;99.90;;;;;;4993962;28;20183;-67
2022/04/08 11:09:07;;;;;;;9.47;8.57;;;11.00;99.90;;;;;;4994213;28;20238;-67
2022/04/08 11:11:35;;;;;;;8.37;7.57;;;11.00;99.90;;;;;;4993864;28;20208;-64
2022/04/08 11:14:03;;;;;;;12.90;9.60;;;11.00;99.90;;;;;;4994226;28;20588;-66
2022/04/08 11:16:30;;;;;;;8.57;7.70;;;11.10;99.90;;;;;;4993615;28;20177;-63
2022/04/08 11:18:56;;;;;;;15.07;11.40;;;11.20;99.90;;;;;;4991962;28;20196;-64
2022/04/08 11:21:23;;;;;;;9.30;8.40;;;11.30;99.90;;;;;;4993955;28;20192;-64
2022/04/08 11:24:00;;;;;;;8.70;8.00;;;11.30;99.90;;;;;;4993632;28;20177;-65
2022/04/08 11:26:29;;;;;;;8.20;7.60;;;11.10;99.90;;;;;;4992343;28;20180;-65
2022/04/08 11:28:56;;;;;;;8.37;7.70;;;11.20;99.90;;;;;;4993550;28;20186;-64
2022/04/08 11:31:22;;;;;;;8.80;8.00;;;11.30;99.90;;;;;;4993686;28;20515;-64
2022/04/08 11:33:48;;;;;;;7.23;6.53;;;11.60;99.90;;;;;;4993463;28;20177;-64
2022/04/08 11:36:15;;;;;;;8.47;7.60;;;11.70;99.90;;;;;;4993192;28;20180;-65
2022/04/08 11:38:42;;;;;;;7.57;6.90;;;11.90;99.90;;;;;;4993666;28;20224;-66
2022/04/08 11:41:18;;;;;;;7.50;6.80;;;12.10;99.90;;;;;;4993476;28;20548;-65
2022/04/08 11:43:44;;;;;;;7.17;6.60;;;12.20;99.90;;;;;;4993033;28;20176;-65
2022/04/08 11:46:14;;;;;;;7.40;6.90;;;12.10;99.90;;;;;;4992950;28;20184;-65
2022/04/08 11:48:40;;;;;;;9.73;7.20;;;11.90;99.90;;;;;;4992086;28;20210;-65
2022/04/08 11:51:06;;;;;;;8.87;7.97;;;11.80;99.90;;;;;;4993223;28;20209;-65
2022/04/08 11:53:42;;;;;;;9.00;8.30;;;12.00;99.90;;;;;;4993687;28;20168;-64
2022/04/08 11:56:07;;;;;;;8.10;7.37;;;12.10;99.90;;;;;;4993334;28;20184;-66
2022/04/08 11:58:33;;;;;;;7.13;6.70;;;11.90;99.90;;;;;;4993403;28;20193;-65
2022/04/08 12:01:00;;;;;;;8.37;7.57;;;11.60;99.90;;;;;;4992916;28;20296;-66
2022/04/08 12:03:36;;;;;;;8.07;7.33;;;11.50;99.90;;;;;;4993326;28;20295;-65
2022/04/08 12:06:03;;;;;;;8.43;7.70;;;11.40;99.90;;;;;;4993023;28;20172;-66
2022/04/08 12:08:29;;;;;;;7.70;7.00;;;11.40;99.90;;;;;;4993122;28;20223;-66
2022/04/08 12:10:58;;;;;;;8.33;7.30;;;11.20;99.90;;;;;;4992449;28;20279;-66
2022/04/08 12:13:25;;;;;;;7.93;7.43;;;11.20;99.90;;;;;;4993025;28;20536;-67
2022/04/08 12:15:56;;;;;;;7.53;6.90;;;11.30;99.90;;;;;;4991957;28;20177;-66
2022/04/08 12:18:23;;;;;;;9.00;8.20;;;11.30;99.90;;;;;;4992915;28;20197;-67
2022/04/08 12:20:59;;;;;;;8.83;7.97;;;11.30;99.90;;;;;;4992496;28;20173;-66
2022/04/08 12:23:27;;;;;;;8.03;7.33;;;11.30;99.90;;;;;;4992941;28;20179;-66
2022/04/08 12:25:54;;;;;;;7.47;6.77;;;11.20;99.90;;;;;;4992201;28;20189;-64
2022/04/08 12:28:30;;;;;;;8.63;7.20;;;11.00;99.90;;;;;;4992900;28;20707;-64
2022/04/08 12:30:56;;;;;;;8.50;7.70;;;10.70;99.90;;;;;;4992274;28;20682;-65
2022/04/08 12:33:21;;;;;;;8.97;8.20;;;10.70;99.90;;;;;;4991878;28;20215;-65
2022/04/08 12:35:48;;;;;;;8.53;7.83;;;10.90;99.90;;;;;;4990379;28;20681;-64
2022/04/08 12:38:19;;;;;;;9.67;7.13;;;11.00;99.90;;;;;;4995158;28;20208;-65
2022/04/08 12:40:46;;;;;;;8.43;7.43;;;10.90;99.90;;;;;;5009054;28;20177;-65
2022/04/08 12:43:11;;;;;;;8.37;7.57;;;10.90;99.90;;;;;;5007860;28;20185;-66
2022/04/08 12:45:37;;;;;;;8.17;7.57;;;10.90;99.90;;;;;;5003809;28;20188;-63
2022/04/08 12:48:03;;;;;;;8.33;7.63;;;10.90;99.90;;;;;;4993127;28;20188;-64